Time;durP1;ratioP1;P1;durP2;ratioP2;P2;SDS_P1;SDS_P2;PMS_P1;PMS_P2;Temp;Humidity;BMP_temperature;BMP_pressure;BME280_temperature;BME280_humidity;BME280_pressure;Samples;Min_cycle;Max_cycle;Signal;HPM_P1;HPM_P2
2023/02/27 00:00:13;;;;;;;2.63;2.33;;;4.00;82.30;;;;;;4957804;28;20790;-83
2023/02/27 00:02:42;;;;;;;3.17;2.17;;;4.10;81.40;;;;;;4943610;29;20501;-80
2023/02/27 00:05:09;;;;;;;2.23;2.00;;;4.00;81.40;;;;;;4938177;29;20532;-81
2023/02/27 00:07:39;;;;;;;4.27;2.50;;;4.00;81.60;;;;;;4946385;28;20442;-82
2023/02/27 00:11:00;;;;;;;3.47;2.37;;;3.90;82.10;;;;;;4951086;28;20449;-83
2023/02/27 00:13:32;;;;;;;2.53;2.10;;;4.00;82.40;;;;;;4939254;28;20481;-83
2023/02/27 00:16:35;;;;;;;3.30;1.80;;;3.90;82.60;;;;;;4945304;28;20474;-81
2023/02/27 00:19:29;;;;;;;3.20;2.30;;;4.00;82.90;;;;;;4953414;28;20498;-82
2023/02/27 00:22:57;;;;;;;;;;;;;;;;;;;;;
2023/02/27 00:26:06;;;;;;;;;;;;;;;;;;;;;
2023/02/27 00:30:00;;;;;;;2.73;2.03;;;4.10;82.00;;;;;;4930474;29;20478;-83
2023/02/27 00:37:42;;;;;;;2.73;1.97;;;3.80;82.30;;;;;;4916899;28;20895;-81
2023/02/27 00:41:09;;;;;;;3.43;1.90;;;3.70;83.40;;;;;;4900449;29;20517;-82
2023/02/27 01:26:30;;;;;;;1.83;1.73;;;3.80;87.40;;;;;;4985865;23;20512;-82
2023/02/27 01:30:10;;;;;;;;;;;;;;;;;;;;;
2023/02/27 01:33:48;;;;;;;;;;;;;;;;;;;;;
2023/02/27 01:45:18;;;;;;;3.93;2.20;;;3.60;88.70;;;;;;4769150;26;20494;-82
2023/02/27 01:47:55;;;;;;;2.30;1.80;;;3.60;88.50;;;;;;4910022;29;20522;-83
2023/02/27 01:50:27;;;;;;;2.10;2.00;;;3.60;88.90;;;;;;4925728;29;20470;-82
2023/02/27 01:52:58;;;;;;;2.67;2.27;;;3.70;89.30;;;;;;4925684;28;20488;-82
2023/02/27 01:55:31;;;;;;;2.10;1.70;;;3.60;89.20;;;;;;4925234;28;20473;-82
2023/02/27 01:57:59;;;;;;;2.73;2.00;;;3.60;89.50;;;;;;4925373;28;20545;-81
2023/02/27 02:00:29;;;;;;;2.60;1.80;;;3.80;89.80;;;;;;4941745;28;20452;-82
2023/02/27 02:03:06;;;;;;;4.00;1.93;;;3.80;89.60;;;;;;4936357;28;20477;-82
2023/02/27 02:05:45;;;;;;;2.00;1.83;;;3.80;89.50;;;;;;4919476;28;20594;-81
2023/02/27 02:08:17;;;;;;;3.93;2.43;;;3.70;89.60;;;;;;4916105;28;20458;-81
2023/02/27 02:10:46;;;;;;;3.00;1.80;;;3.60;90.10;;;;;;4915920;28;20465;-82
2023/02/27 02:13:16;;;;;;;2.50;1.90;;;3.60;90.30;;;;;;4928196;28;20451;-83
2023/02/27 02:16:05;;;;;;;2.63;2.20;;;3.70;89.80;;;;;;4907603;29;20547;-83
2023/02/27 02:19:07;;;;;;;4.27;2.33;;;3.60;89.70;;;;;;4895996;29;20990;-82
2023/02/27 02:21:47;;;;;;;2.30;1.87;;;3.50;90.00;;;;;;4909864;29;20459;-82
2023/02/27 02:24:37;;;;;;;3.30;2.00;;;3.30;90.20;;;;;;4912124;29;20574;-83
2023/02/27 02:27:35;;;;;;;3.00;1.70;;;3.30;90.60;;;;;;4905916;29;20461;-82
2023/02/27 02:30:33;;;;;;;2.60;2.40;;;3.30;90.80;;;;;;4900445;29;20462;-82
2023/02/27 02:33:40;;;;;;;2.20;1.60;;;3.40;91.30;;;;;;4904396;29;20453;-81
2023/02/27 02:36:36;;;;;;;3.03;1.63;;;3.30;91.10;;;;;;4902767;29;20462;-81
2023/02/27 02:39:22;;;;;;;2.07;1.83;;;3.20;91.20;;;;;;4917056;29;20494;-81
2023/02/27 02:41:57;;;;;;;2.10;1.90;;;3.30;91.30;;;;;;4917732;29;20640;-83
2023/02/27 02:44:40;;;;;;;4.60;1.83;;;3.40;91.10;;;;;;4915058;29;20494;-82
2023/02/27 02:47:35;;;;;;;4.10;2.23;;;3.30;90.80;;;;;;4910713;29;20487;-82
2023/02/27 02:50:39;;;;;;;2.67;2.30;;;3.30;90.80;;;;;;4900048;29;20462;-82
2023/02/27 02:53:31;;;;;;;3.53;1.83;;;3.20;90.90;;;;;;4895428;29;20471;-81
2023/02/27 02:56:16;;;;;;;3.80;1.97;;;3.20;91.20;;;;;;4908753;29;20586;-82
2023/02/27 02:58:46;;;;;;;4.37;1.93;;;3.40;91.10;;;;;;4892040;29;20494;-82
2023/02/27 03:01:26;;;;;;;2.47;2.20;;;3.20;90.80;;;;;;4890012;29;20469;-82
2023/02/27 03:04:17;;;;;;;6.53;2.03;;;3.50;90.70;;;;;;4893873;29;20465;-83
2023/02/27 03:06:54;;;;;;;2.30;1.60;;;3.20;90.50;;;;;;4891111;29;20561;-82
2023/02/27 03:09:34;;;;;;;2.20;2.00;;;3.10;90.80;;;;;;4891989;29;20482;-82
2023/02/27 03:12:06;;;;;;;2.70;1.80;;;3.10;91.10;;;;;;4894603;29;20485;-81
2023/02/27 03:14:53;;;;;;;3.80;1.97;;;3.10;91.30;;;;;;4911845;29;20498;-82
2023/02/27 03:17:55;;;;;;;1.80;1.70;;;3.20;91.60;;;;;;4912442;29;20441;-82
2023/02/27 03:20:28;;;;;;;3.10;1.80;;;3.20;91.70;;;;;;4885166;29;20454;-81
2023/02/27 03:22:59;;;;;;;3.53;2.17;;;3.20;91.50;;;;;;4913894;29;20454;-84
2023/02/27 03:25:27;;;;;;;2.83;1.87;;;3.10;91.60;;;;;;4894653;29;20836;-81
2023/02/27 03:28:01;;;;;;;5.10;2.03;;;3.20;91.60;;;;;;4899646;29;20465;-83
2023/02/27 03:30:35;;;;;;;2.30;2.10;;;3.10;91.70;;;;;;4918535;29;20467;-82
2023/02/27 03:33:54;;;;;;;2.33;2.10;;;3.00;91.70;;;;;;4934460;28;20557;-82
2023/02/27 03:37:03;;;;;;;5.57;2.10;;;2.90;91.90;;;;;;4923250;28;20494;-81
2023/02/27 03:39:48;;;;;;;2.40;2.10;;;3.10;92.10;;;;;;4903486;29;20482;-82
2023/02/27 03:42:38;;;;;;;2.37;2.17;;;2.90;91.90;;;;;;4892835;29;21049;-83
2023/02/27 03:45:31;;;;;;;2.57;2.37;;;3.10;92.00;;;;;;4907176;29;20483;-82
2023/02/27 03:48:08;;;;;;;2.60;1.80;;;3.00;91.80;;;;;;4895257;29;20477;-80
2023/02/27 03:50:39;;;;;;;2.63;2.20;;;3.00;91.80;;;;;;4891771;29;20459;-82
2023/02/27 03:53:32;;;;;;;1.83;1.73;;;3.10;91.90;;;;;;4907113;29;20457;-82
2023/02/27 03:56:29;;;;;;;6.20;2.00;;;3.10;91.80;;;;;;4893352;29;20514;-83
2023/02/27 04:03:01;;;;;;;2.20;1.83;;;3.00;92.10;;;;;;4873417;29;20460;-82
2023/02/27 04:09:37;;;;;;;3.93;1.90;;;3.10;92.20;;;;;;4885980;29;20477;-82
2023/02/27 04:16:36;;;;;;;2.30;2.10;;;2.80;92.40;;;;;;4898610;29;20558;-83
2023/02/27 04:20:09;;;;;;;2.60;2.30;;;3.10;92.50;;;;;;4838079;29;20485;-81
2023/02/27 04:22:57;;;;;;;2.97;2.10;;;3.40;92.30;;;;;;4847532;29;20513;-82
2023/02/27 04:28:49;;;;;;;3.23;2.77;;;3.30;91.90;;;;;;2819200;26;20805;-81
2023/02/27 04:31:36;;;;;;;3.70;2.23;;;3.50;91.50;;;;;;4961677;28;20460;-82
2023/02/27 04:34:33;;;;;;;4.40;2.23;;;3.20;91.20;;;;;;4968529;28;20484;-83
2023/02/27 04:38:00;;;;;;;;;;;;;;;;;;;;;
2023/02/27 04:41:14;;;;;;;2.90;2.40;;;3.00;91.70;;;;;;4969216;28;20462;-81
2023/02/27 04:43:46;;;;;;;2.30;2.10;;;2.90;91.90;;;;;;4954981;28;20491;-83
2023/02/27 04:46:17;;;;;;;13.73;2.57;;;2.90;92.00;;;;;;4953851;28;20480;-83
2023/02/27 04:49:03;;;;;;;3.17;2.80;;;3.10;92.00;;;;;;4945127;28;20467;-82
2023/02/27 04:51:38;;;;;;;2.27;2.00;;;3.20;91.70;;;;;;4947180;28;20560;-82
2023/02/27 04:54:13;;;;;;;3.90;2.07;;;3.00;91.70;;;;;;4945916;28;20531;-83
2023/02/27 04:56:49;;;;;;;2.30;2.10;;;2.80;91.90;;;;;;4944162;28;20467;-82
2023/02/27 04:59:30;;;;;;;2.90;2.30;;;2.70;92.10;;;;;;4949234;28;20536;-84
2023/02/27 05:02:13;;;;;;;2.53;2.33;;;2.70;92.50;;;;;;4953585;28;20470;-82
2023/02/27 05:04:43;;;;;;;2.67;2.40;;;2.70;92.80;;;;;;4963284;28;20477;-81
2023/02/27 05:07:19;;;;;;;2.93;2.17;;;2.80;92.90;;;;;;4950232;28;20449;-81
2023/02/27 05:10:22;;;;;;;4.27;2.70;;;2.80;93.00;;;;;;4951990;28;20538;-81
2023/02/27 05:13:14;;;;;;;3.47;2.60;;;2.80;93.10;;;;;;4954706;28;20461;-83
2023/02/27 05:16:38;;;;;;;;;;;;;;;;;;;;;
2023/02/27 05:19:26;;;;;;;4.00;2.67;;;2.70;93.20;;;;;;4903990;28;20558;-81
2023/02/27 05:25:37;;;;;;;2.43;2.20;;;2.90;93.20;;;;;;4954844;28;20495;-84
2023/02/27 05:28:23;;;;;;;4.87;2.40;;;3.10;93.20;;;;;;4943808;28;20471;-81
2023/02/27 05:31:20;;;;;;;3.00;2.47;;;3.10;93.00;;;;;;4939728;28;20458;-81
2023/02/27 05:34:00;;;;;;;2.13;2.03;;;3.00;92.80;;;;;;4936692;28;20460;-83
2023/02/27 05:36:46;;;;;;;8.37;2.73;;;2.90;92.90;;;;;;4959036;28;20453;-84
2023/02/27 05:39:20;;;;;;;2.53;2.33;;;2.80;93.10;;;;;;4946859;28;20477;-82
2023/02/27 05:42:05;;;;;;;2.73;2.27;;;3.00;93.40;;;;;;4950118;28;20657;-84
2023/02/27 05:44:36;;;;;;;2.33;2.13;;;3.10;93.30;;;;;;4962654;28;20484;-83
2023/02/27 05:53:35;;;;;;;3.10;2.30;;;2.80;93.10;;;;;;5683107;23;20504;-82
2023/02/27 05:56:05;;;;;;;3.13;2.50;;;2.80;93.20;;;;;;4966257;28;20471;-82
2023/02/27 05:58:45;;;;;;;3.10;2.20;;;2.90;93.10;;;;;;4948690;28;20478;-83
2023/02/27 06:01:20;;;;;;;2.73;2.30;;;2.80;93.00;;;;;;4955093;28;20613;-80
2023/02/27 06:07:00;;;;;;;5.03;2.40;;;2.80;92.90;;;;;;4576000;26;20489;-80
2023/02/27 06:09:27;;;;;;;3.40;2.20;;;2.80;93.00;;;;;;4934254;29;20457;-82
2023/02/27 06:11:55;;;;;;;3.90;2.50;;;2.80;93.00;;;;;;4945253;29;21674;-81
2023/02/27 06:14:34;;;;;;;3.50;2.37;;;2.70;93.10;;;;;;4937754;29;20483;-82
2023/02/27 06:17:15;;;;;;;6.13;2.33;;;2.60;93.20;;;;;;4949430;28;20532;-83
2023/02/27 06:19:42;;;;;;;3.43;2.83;;;2.60;93.30;;;;;;4944244;29;20812;-83
2023/02/27 06:22:23;;;;;;;3.40;2.80;;;2.60;93.40;;;;;;4946195;29;20455;-80
2023/02/27 06:25:00;;;;;;;2.80;2.57;;;2.90;93.60;;;;;;4937430;29;21049;-80
2023/02/27 06:27:32;;;;;;;3.80;2.47;;;2.90;92.90;;;;;;4932707;29;20496;-81
2023/02/27 06:29:59;;;;;;;4.20;2.70;;;2.80;92.80;;;;;;4933443;29;20457;-81
2023/02/27 06:32:26;;;;;;;4.70;2.67;;;2.70;92.80;;;;;;4950512;29;20473;-81
2023/02/27 06:34:53;;;;;;;2.97;2.63;;;2.70;92.90;;;;;;4929090;29;20488;-82
2023/02/27 06:37:20;;;;;;;3.23;2.27;;;2.70;92.90;;;;;;4930097;29;20468;-82
2023/02/27 06:39:48;;;;;;;3.83;2.40;;;3.10;92.70;;;;;;4932937;29;20492;-82
2023/02/27 06:42:15;;;;;;;5.10;2.90;;;3.10;92.40;;;;;;4933512;29;20894;-84
2023/02/27 06:44:45;;;;;;;2.57;1.93;;;3.00;92.20;;;;;;4946500;28;20476;-82
2023/02/27 06:47:13;;;;;;;2.50;2.17;;;2.90;92.20;;;;;;4936644;29;21259;-83
2023/02/27 06:49:40;;;;;;;6.00;2.43;;;2.90;92.40;;;;;;4941325;29;21336;-82
2023/02/27 06:52:59;;;;;;;3.13;2.83;;;3.00;92.50;;;;;;4939127;29;20460;-82
2023/02/27 06:56:22;;;;;;;;;;;;;;;;;;;;;
2023/02/27 08:22:56;;;;;;;5.60;2.20;;;9.00;53.70;;;;;;4877937;29;20463;-83
2023/02/27 09:17:59;;;;;;;4.43;1.63;;;5.00;71.20;;;;;;4968857;28;20471;-81
2023/02/27 09:20:34;;;;;;;1.90;1.60;;;5.30;71.50;;;;;;4971998;28;20513;-84
2023/02/27 09:23:37;;;;;;;1.90;1.50;;;5.30;70.90;;;;;;4967444;28;20453;-82
2023/02/27 09:26:17;;;;;;;3.60;2.00;;;5.30;70.50;;;;;;4971824;28;20493;-81
2023/02/27 09:29:31;;;;;;;2.50;1.80;;;5.20;69.90;;;;;;4972988;28;20451;-82
2023/02/27 09:32:12;;;;;;;1.80;1.63;;;5.00;69.80;;;;;;4972108;28;20460;-81
2023/02/27 09:35:01;;;;;;;;;;;;;;;;;;;;;
2023/02/27 09:37:48;;;;;;;1.90;1.80;;;5.10;70.80;;;;;;4972588;28;20471;-83
2023/02/27 09:40:40;;;;;;;2.57;2.10;;;5.10;72.10;;;;;;4970623;28;20490;-83
2023/02/27 09:43:31;;;;;;;2.70;2.27;;;5.20;72.10;;;;;;4969615;28;20480;-83
2023/02/27 09:46:10;;;;;;;1.83;1.70;;;5.40;71.20;;;;;;4972882;28;21089;-83
2023/02/27 09:49:14;;;;;;;4.87;2.13;;;5.50;71.10;;;;;;4975007;28;20466;-82
2023/02/27 09:51:49;;;;;;;3.33;1.67;;;5.60;70.80;;;;;;4981760;28;20482;-82
2023/02/27 09:54:33;;;;;;;2.43;1.67;;;5.40;71.10;;;;;;4991085;28;20552;-83
2023/02/27 09:57:24;;;;;;;1.93;1.73;;;5.30;71.20;;;;;;4989285;28;20924;-82
2023/02/27 10:00:19;;;;;;;;;;;;;;;;;;;;;
2023/02/27 10:03:42;;;;;;;3.37;2.00;;;6.10;70.40;;;;;;4973699;28;20491;-84
2023/02/27 10:06:34;;;;;;;2.40;1.30;;;8.20;65.80;;;;;;4975412;28;20502;-84
2023/02/27 10:09:14;;;;;;;1.57;1.33;;;9.70;58.20;;;;;;4985553;28;20471;-82
2023/02/27 10:12:10;;;;;;;1.50;1.40;;;10.20;54.90;;;;;;4992476;28;20454;-82
2023/02/27 10:15:18;;;;;;;3.00;1.80;;;10.90;53.10;;;;;;4992827;28;20464;-83
2023/02/27 10:18:12;;;;;;;2.40;1.50;;;12.30;52.00;;;;;;4991095;28;20462;-83
2023/02/27 10:21:14;;;;;;;1.80;1.60;;;13.20;48.40;;;;;;4989343;28;20554;-82
2023/02/27 10:24:16;;;;;;;1.40;1.30;;;12.20;48.30;;;;;;4985780;28;20479;-83
2023/02/27 10:27:09;;;;;;;2.80;2.40;;;11.40;48.00;;;;;;4990697;28;20460;-83
2023/02/27 10:30:28;;;;;;;1.27;1.27;;;10.40;49.40;;;;;;4986067;28;20449;-82
2023/02/27 10:33:43;;;;;;;1.70;1.10;;;9.90;51.90;;;;;;4968198;28;20461;-83
2023/02/27 10:36:39;;;;;;;1.00;0.90;;;9.30;52.60;;;;;;4985337;28;20456;-85
2023/02/27 10:39:56;;;;;;;1.17;0.90;;;8.80;53.40;;;;;;4978625;28;20471;-85
2023/02/27 10:43:10;;;;;;;1.63;0.90;;;8.50;53.30;;;;;;4977201;28;20462;-83
2023/02/27 10:46:19;;;;;;;3.13;0.60;;;8.30;53.60;;;;;;4895908;29;20455;-84
2023/02/27 10:49:36;;;;;;;0.90;0.80;;;8.30;52.90;;;;;;4862746;29;20465;-82
2023/02/27 10:52:40;;;;;;;2.20;0.90;;;8.20;53.40;;;;;;4862301;29;20457;-82
2023/02/27 10:55:35;;;;;;;1.17;0.60;;;8.20;53.50;;;;;;4863702;29;20598;-82
2023/02/27 10:58:31;;;;;;;1.53;1.17;;;8.00;53.80;;;;;;4860599;29;20629;-83
2023/02/27 11:01:15;;;;;;;1.03;0.60;;;7.80;54.70;;;;;;4864625;29;20544;-82
2023/02/27 11:03:54;;;;;;;0.53;0.53;;;7.90;54.90;;;;;;4865111;29;20779;-83
2023/02/27 11:06:34;;;;;;;1.43;0.83;;;7.80;54.40;;;;;;4866439;29;20457;-84
2023/02/27 11:09:32;;;;;;;2.00;0.97;;;7.70;55.30;;;;;;4863790;29;20460;-83
2023/02/27 11:12:29;;;;;;;0.93;0.93;;;7.70;54.40;;;;;;4858606;29;20466;-83
2023/02/27 11:15:20;;;;;;;0.63;0.63;;;7.60;54.60;;;;;;4989738;23;21414;-83
2023/02/27 11:17:57;;;;;;;1.73;0.60;;;7.70;55.80;;;;;;4987529;28;20460;-83
2023/02/27 11:20:49;;;;;;;2.20;0.73;;;7.70;54.90;;;;;;4986517;28;20490;-82
2023/02/27 11:23:36;;;;;;;0.93;0.70;;;7.40;54.20;;;;;;4986804;28;20451;-82
2023/02/27 11:26:32;;;;;;;2.33;0.93;;;7.50;54.40;;;;;;4986875;28;20470;-82
2023/02/27 11:29:24;;;;;;;1.63;0.70;;;7.70;55.30;;;;;;4972522;28;20531;-84
2023/02/27 11:32:13;;;;;;;1.90;0.90;;;7.90;55.20;;;;;;4985425;28;20455;-85
2023/02/27 11:34:50;;;;;;;3.67;2.40;;;7.70;54.90;;;;;;4969727;28;21393;-82
2023/02/27 11:37:32;;;;;;;1.00;0.70;;;8.10;55.50;;;;;;4971334;28;20476;-83
2023/02/27 11:40:12;;;;;;;1.60;0.77;;;8.10;55.70;;;;;;4948215;28;20484;-82
2023/02/27 11:43:20;;;;;;;2.07;1.10;;;8.20;54.80;;;;;;4967868;28;20558;-82
2023/02/27 11:46:04;;;;;;;1.63;0.70;;;8.20;54.80;;;;;;4986042;28;20485;-85
2023/02/27 11:49:19;;;;;;;1.63;1.10;;;8.20;54.00;;;;;;4985256;28;20451;-83
2023/02/27 11:52:02;;;;;;;1.00;0.90;;;8.10;54.30;;;;;;4970037;28;20581;-82
2023/02/27 11:54:39;;;;;;;0.87;0.80;;;8.00;54.60;;;;;;4974084;28;20521;-83
2023/02/27 11:57:37;;;;;;;1.87;0.97;;;8.00;54.10;;;;;;4986627;28;20463;-85
2023/02/27 12:00:34;;;;;;;1.60;0.77;;;7.70;55.00;;;;;;4961739;28;21905;-84
2023/02/27 12:03:26;;;;;;;1.70;1.47;;;8.00;54.40;;;;;;4972002;28;20458;-85
2023/02/27 12:09:41;;;;;;;1.00;0.80;;;7.80;55.70;;;;;;4976452;28;20540;-81
2023/02/27 12:12:24;;;;;;;0.97;0.77;;;8.10;55.20;;;;;;4992533;28;20531;-82
2023/02/27 12:14:58;;;;;;;1.17;1.07;;;8.20;53.90;;;;;;4973110;28;20483;-84
2023/02/27 12:17:34;;;;;;;0.80;0.80;;;8.20;53.80;;;;;;4975446;28;20811;-83
2023/02/27 12:20:21;;;;;;;1.47;1.10;;;8.00;54.60;;;;;;4979400;28;20780;-83
2023/02/27 12:22:52;;;;;;;0.80;0.80;;;7.90;54.40;;;;;;4980227;28;20468;-84
2023/02/27 12:25:35;;;;;;;1.03;0.80;;;8.10;55.30;;;;;;5001735;28;20463;-83
2023/02/27 12:28:32;;;;;;;0.73;0.73;;;8.10;54.70;;;;;;4988062;28;20512;-82
2023/02/27 12:31:25;;;;;;;2.80;1.43;;;8.10;54.10;;;;;;4987973;28;20479;-82
2023/02/27 12:34:12;;;;;;;1.97;1.20;;;8.20;53.40;;;;;;5001182;28;20438;-84
2023/02/27 12:36:47;;;;;;;3.97;1.73;;;7.80;54.70;;;;;;5003276;28;20455;-84
2023/02/27 12:39:30;;;;;;;1.27;0.97;;;8.00;55.90;;;;;;4989797;28;20617;-82
2023/02/27 12:42:16;;;;;;;1.63;0.90;;;8.40;54.80;;;;;;4987457;28;21064;-83
2023/02/27 12:45:14;;;;;;;5.23;1.50;;;8.60;54.90;;;;;;4989350;28;20460;-83
2023/02/27 12:47:47;;;;;;;2.30;1.27;;;8.50;54.50;;;;;;4997584;28;20470;-83
2023/02/27 12:50:20;;;;;;;1.20;1.10;;;8.80;54.00;;;;;;4988346;28;20446;-83
2023/02/27 12:53:23;;;;;;;2.20;1.40;;;8.60;54.00;;;;;;4977886;28;20466;-82
2023/02/27 12:56:00;;;;;;;1.93;1.00;;;8.40;53.10;;;;;;4980554;28;20507;-83
2023/02/27 12:59:00;;;;;;;0.83;0.83;;;8.60;52.70;;;;;;4985084;28;20471;-84
2023/02/27 13:02:19;;;;;;;1.33;0.90;;;8.80;52.10;;;;;;4985049;28;20487;-83
2023/02/27 13:05:26;;;;;;;1.57;1.10;;;8.90;51.80;;;;;;4924848;28;20486;-82
2023/02/27 13:08:55;;;;;;;2.47;1.00;;;9.10;52.40;;;;;;4989766;28;20455;-82
2023/02/27 13:11:57;;;;;;;;;;;;;;;;;;;;;
2023/02/27 13:15:01;;;;;;;2.60;1.10;;;9.30;52.20;;;;;;4989329;28;20476;-83
2023/02/27 13:18:04;;;;;;;1.53;0.83;;;9.10;51.60;;;;;;4961931;28;21188;-84
2023/02/27 13:21:27;;;;;;;0.70;0.70;;;9.50;52.80;;;;;;4973665;28;20476;-83
2023/02/27 13:25:29;;;;;;;1.57;0.80;;;9.70;52.10;;;;;;4987041;28;20448;-82
2023/02/27 13:28:36;;;;;;;1.20;1.10;;;9.90;51.10;;;;;;4978819;28;20459;-84
2023/02/27 13:32:12;;;;;;;1.70;1.43;;;10.80;48.30;;;;;;4974042;28;20451;-83
2023/02/27 13:35:44;;;;;;;;;;;;;;;;;;;;;
2023/02/27 13:38:47;;;;;;;1.53;0.90;;;10.30;48.30;;;;;;4988055;28;20452;-83
2023/02/27 13:45:27;;;;;;;;;;;;;;;;;;;;;
2023/02/27 13:48:46;;;;;;;1.00;0.80;;;11.30;46.90;;;;;;4945773;28;20554;-80
2023/02/27 13:52:00;;;;;;;1.23;1.00;;;11.30;45.40;;;;;;4974152;28;20556;-82
2023/02/27 13:54:49;;;;;;;3.30;1.17;;;10.90;46.50;;;;;;5113003;23;20487;-82
2023/02/27 13:57:57;;;;;;;1.13;1.10;;;10.70;46.90;;;;;;4966325;28;20469;-82
2023/02/27 14:01:25;;;;;;;1.40;1.30;;;10.30;47.30;;;;;;4965535;28;20483;-83
2023/02/27 14:05:13;;;;;;;5.17;1.50;;;10.00;47.90;;;;;;4969777;28;20460;-82
2023/02/27 14:08:05;;;;;;;1.03;0.70;;;10.10;49.10;;;;;;4954234;28;20470;-82
2023/02/27 14:10:49;;;;;;;1.00;0.83;;;9.90;49.50;;;;;;4959177;28;21002;-83
2023/02/27 14:13:49;;;;;;;2.23;0.93;;;9.90;49.10;;;;;;4960913;28;21367;-84
2023/02/27 14:16:36;;;;;;;1.60;1.33;;;9.70;49.20;;;;;;4978642;28;20462;-83
2023/02/27 14:19:55;;;;;;;6.60;0.90;;;9.50;50.40;;;;;;4978040;28;20519;-83
2023/02/27 14:23:02;;;;;;;2.93;1.10;;;9.40;51.00;;;;;;4979004;28;20454;-81
2023/02/27 14:26:10;;;;;;;1.00;0.90;;;9.30;49.60;;;;;;4965224;28;20528;-83
2023/02/27 14:29:12;;;;;;;2.00;1.10;;;9.20;50.80;;;;;;4981260;28;20479;-83
2023/02/27 14:31:43;;;;;;;2.03;0.90;;;9.10;50.40;;;;;;4950596;28;20466;-83
2023/02/27 14:34:20;;;;;;;2.37;0.90;;;9.30;50.50;;;;;;4956031;28;20467;-83
2023/02/27 14:36:52;;;;;;;1.10;1.00;;;9.00;50.00;;;;;;4960848;28;20452;-83
2023/02/27 14:39:32;;;;;;;1.67;1.57;;;9.10;50.10;;;;;;4973054;28;20468;-82
2023/02/27 14:42:39;;;;;;;0.90;0.70;;;8.70;49.90;;;;;;4959967;28;20573;-83
2023/02/27 14:45:15;;;;;;;1.90;0.97;;;8.70;50.70;;;;;;4960406;28;20514;-83
2023/02/27 14:47:46;;;;;;;0.70;0.70;;;8.90;52.00;;;;;;4955916;28;21924;-83
2023/02/27 14:50:43;;;;;;;1.33;0.83;;;9.10;51.10;;;;;;4958571;28;21010;-83
2023/02/27 14:53:46;;;;;;;1.87;0.97;;;9.00;51.30;;;;;;4958364;28;20460;-82
2023/02/27 14:56:38;;;;;;;1.30;0.83;;;9.10;51.60;;;;;;4981692;28;20623;-82
2023/02/27 14:59:49;;;;;;;2.37;1.10;;;9.10;51.30;;;;;;4980566;28;20467;-83
2023/02/27 15:02:36;;;;;;;1.13;0.90;;;9.00;51.80;;;;;;4970870;28;20510;-84
2023/02/27 15:05:43;;;;;;;1.43;0.90;;;8.90;52.60;;;;;;4966698;28;21024;-84
2023/02/27 15:08:29;;;;;;;2.60;0.90;;;8.70;53.00;;;;;;4979018;28;20487;-84
2023/02/27 15:11:09;;;;;;;2.27;1.20;;;8.80;53.60;;;;;;4949682;28;20460;-82
2023/02/27 15:14:03;;;;;;;3.37;1.67;;;8.70;53.50;;;;;;4980868;28;20456;-82
2023/02/27 15:16:48;;;;;;;1.33;1.00;;;8.90;54.20;;;;;;4974481;28;20448;-83
2023/02/27 15:19:50;;;;;;;2.40;1.13;;;8.80;54.60;;;;;;4985872;28;20478;-82
2023/02/27 15:22:30;;;;;;;1.27;1.17;;;8.70;55.30;;;;;;4957597;28;20511;-81
2023/02/27 15:25:31;;;;;;;0.90;0.80;;;8.70;56.00;;;;;;4957988;28;20487;-82
2023/02/27 15:28:32;;;;;;;1.03;1.03;;;8.60;56.30;;;;;;4985763;28;20444;-82
2023/02/27 15:31:25;;;;;;;1.97;1.27;;;8.60;56.70;;;;;;5014928;23;20488;-81
2023/02/27 15:34:02;;;;;;;2.57;1.30;;;8.60;56.50;;;;;;4951916;28;20564;-80
2023/02/27 15:36:51;;;;;;;2.50;1.60;;;8.40;56.80;;;;;;4953279;28;20672;-84
2023/02/27 15:39:33;;;;;;;2.07;1.50;;;8.60;57.70;;;;;;4951279;29;20446;-81
2023/02/27 15:42:11;;;;;;;2.47;1.30;;;8.60;57.70;;;;;;4962279;28;20480;-83
2023/02/27 15:44:51;;;;;;;1.90;1.07;;;8.40;57.30;;;;;;4944633;29;20492;-84
2023/02/27 15:47:57;;;;;;;1.40;0.90;;;8.40;56.60;;;;;;4970560;28;20437;-82
2023/02/27 15:50:49;;;;;;;1.13;1.03;;;8.50;57.00;;;;;;4951122;29;20446;-83
2023/02/27 15:53:49;;;;;;;2.57;1.20;;;8.40;57.50;;;;;;4946311;29;20453;-85
2023/02/27 15:56:34;;;;;;;3.37;1.20;;;8.40;56.70;;;;;;4960822;28;20453;-84
2023/02/27 15:59:21;;;;;;;1.60;1.27;;;8.20;56.70;;;;;;4949960;29;20458;-84
2023/02/27 16:01:51;;;;;;;1.10;1.00;;;8.00;56.70;;;;;;4943628;29;21041;-82
2023/02/27 16:04:32;;;;;;;2.10;0.90;;;8.10;56.10;;;;;;4947354;29;20476;-82
2023/02/27 16:07:19;;;;;;;1.33;1.00;;;8.10;56.30;;;;;;4950852;29;20460;-83
2023/02/27 16:10:10;;;;;;;2.40;0.97;;;7.80;56.10;;;;;;4953680;28;20464;-83
2023/02/27 16:13:05;;;;;;;1.07;0.97;;;7.80;56.30;;;;;;4945726;29;20518;-83
2023/02/27 16:15:40;;;;;;;1.50;0.80;;;7.80;55.80;;;;;;4945023;29;20578;-83
2023/02/27 16:18:48;;;;;;;1.07;0.97;;;7.90;55.70;;;;;;4945788;29;20465;-83
2023/02/27 16:21:22;;;;;;;2.17;1.17;;;7.90;56.00;;;;;;4937766;28;20552;-84
2023/02/27 16:24:18;;;;;;;4.40;1.33;;;8.10;56.00;;;;;;4952162;28;20487;-83
2023/02/27 16:27:09;;;;;;;1.63;1.20;;;8.00;57.00;;;;;;4946964;29;20454;-82
2023/02/27 16:29:49;;;;;;;2.47;1.70;;;8.00;57.00;;;;;;4951253;29;20446;-82
2023/02/27 16:32:28;;;;;;;1.50;1.33;;;8.00;57.20;;;;;;4946703;29;20521;-83
2023/02/27 16:35:21;;;;;;;1.43;1.00;;;8.10;57.40;;;;;;4945591;28;20501;-84
2023/02/27 16:38:19;;;;;;;1.67;1.30;;;8.20;57.30;;;;;;4949023;29;20451;-82
2023/02/27 16:49:31;;;;;;;1.93;1.30;;;7.80;57.60;;;;;;4288946;26;20492;-82
2023/02/27 16:52:15;;;;;;;2.13;1.43;;;7.70;57.90;;;;;;4950463;28;20465;-83
2023/02/27 16:57:40;;;;;;;3.67;1.30;;;7.60;59.00;;;;;;4038917;26;20524;-82
2023/02/27 17:00:29;;;;;;;3.13;1.43;;;7.50;58.80;;;;;;4940191;28;20469;-84
2023/02/27 17:03:07;;;;;;;2.97;1.30;;;7.40;58.80;;;;;;4932727;28;20465;-80
2023/02/27 17:05:47;;;;;;;2.50;1.63;;;7.40;59.40;;;;;;4923131;29;20482;-84
2023/02/27 17:08:36;;;;;;;1.53;1.20;;;7.30;58.30;;;;;;4946539;28;20457;-82
2023/02/27 17:11:12;;;;;;;2.20;1.40;;;7.30;57.70;;;;;;4922310;29;20454;-82
2023/02/27 17:13:49;;;;;;;2.33;1.67;;;7.30;58.20;;;;;;4931213;29;20520;-82
2023/02/27 17:16:24;;;;;;;2.47;1.63;;;7.10;58.70;;;;;;4916532;29;20568;-83
2023/02/27 17:18:55;;;;;;;3.53;1.37;;;7.20;58.40;;;;;;4918326;29;20484;-81
2023/02/27 17:21:33;;;;;;;2.40;1.67;;;7.10;58.00;;;;;;4921186;29;20470;-82
2023/02/27 17:24:10;;;;;;;5.23;3.40;;;7.30;58.10;;;;;;4917019;29;20491;-80
2023/02/27 17:26:51;;;;;;;2.13;1.80;;;7.20;58.30;;;;;;4935479;29;20492;-81
2023/02/27 17:29:25;;;;;;;1.60;1.50;;;7.20;59.20;;;;;;4923262;29;20711;-82
2023/02/27 17:32:22;;;;;;;4.67;3.63;;;7.20;59.80;;;;;;4922127;29;20458;-83
2023/02/27 17:35:24;;;;;;;;;;;;;;;;;;;;;
2023/02/27 17:38:21;;;;;;;2.40;2.20;;;7.20;59.40;;;;;;4931753;29;20500;-83
2023/02/27 17:41:17;;;;;;;2.43;1.90;;;7.20;60.40;;;;;;4921987;29;20485;-82
2023/02/27 17:44:00;;;;;;;3.13;1.60;;;7.10;59.50;;;;;;4938025;29;20438;-82
2023/02/27 17:46:48;;;;;;;2.73;1.97;;;7.00;59.70;;;;;;4923120;29;20484;-82
2023/02/27 17:49:56;;;;;;;2.07;1.80;;;7.00;60.20;;;;;;4922221;29;20438;-81
2023/02/27 17:52:28;;;;;;;3.80;2.13;;;7.00;60.30;;;;;;4927037;29;20463;-82
2023/02/27 17:55:44;;;;;;;4.03;1.40;;;7.10;60.30;;;;;;4941353;28;20457;-84
2023/02/27 17:58:44;;;;;;;3.53;1.67;;;7.10;60.70;;;;;;4929488;28;20449;-81
2023/02/27 18:04:57;;;;;;;3.30;2.03;;;7.10;60.30;;;;;;5061455;23;20503;-82
2023/02/27 18:10:54;;;;;;;3.13;2.17;;;6.80;60.70;;;;;;4895861;29;20444;-82
2023/02/27 18:13:38;;;;;;;3.03;2.03;;;6.90;60.30;;;;;;4882148;29;21087;-82
2023/02/27 18:16:32;;;;;;;4.00;2.43;;;6.90;60.80;;;;;;4895507;29;20448;-81
2023/02/27 18:24:37;;;;;;;3.50;2.57;;;6.80;61.50;;;;;;4705656;26;20968;-81
2023/02/27 18:27:30;;;;;;;2.47;2.27;;;6.90;61.80;;;;;;4970036;28;20523;-82
2023/02/27 18:30:19;;;;;;;8.43;5.00;;;6.70;61.90;;;;;;4968182;28;20490;-82
2023/02/27 18:33:18;;;;;;;2.83;2.53;;;6.60;62.30;;;;;;4958005;28;20498;-83
2023/02/27 18:36:33;;;;;;;2.77;2.20;;;6.70;62.80;;;;;;4958375;28;20467;-82
2023/02/27 18:39:22;;;;;;;4.30;2.47;;;6.80;63.50;;;;;;4965567;28;20495;-82
2023/02/27 18:45:30;;;;;;;3.90;2.13;;;6.90;63.40;;;;;;4981387;28;20459;-81
2023/02/27 18:48:25;;;;;;;2.90;2.03;;;6.80;63.80;;;;;;4960439;28;20440;-83
2023/02/27 18:51:15;;;;;;;3.10;2.57;;;6.50;64.70;;;;;;4975114;28;20463;-84
2023/02/27 18:57:15;;;;;;;3.00;2.57;;;6.40;65.60;;;;;;4974531;28;20457;-84
2023/02/27 19:00:11;;;;;;;;;;;;;;;;;;;;;
2023/02/27 19:03:04;;;;;;;2.13;1.97;;;6.40;65.80;;;;;;4976508;28;20522;-81
2023/02/27 19:06:20;;;;;;;3.27;2.47;;;6.40;65.80;;;;;;4969613;28;20478;-81
2023/02/27 19:09:21;;;;;;;4.60;2.70;;;6.50;66.10;;;;;;4966278;28;20411;-82
2023/02/27 19:12:18;;;;;;;3.57;2.33;;;6.50;66.20;;;;;;4980294;28;20448;-82
2023/02/27 19:14:56;;;;;;;3.07;2.03;;;6.70;65.50;;;;;;4971957;28;20464;-82
2023/02/27 19:17:36;;;;;;;3.17;2.27;;;6.70;65.40;;;;;;4989196;28;20448;-82
2023/02/27 19:20:21;;;;;;;2.80;2.60;;;6.40;65.70;;;;;;4973619;28;20451;-82
2023/02/27 19:23:13;;;;;;;3.07;2.50;;;6.40;66.10;;;;;;5208981;23;20494;-84
2023/02/27 19:28:26;;;;;;;2.60;2.37;;;6.50;65.10;;;;;;4086855;26;20471;-83
2023/02/27 19:34:21;;;;;;;4.67;2.73;;;6.30;65.60;;;;;;4968978;28;20459;-82
2023/02/27 19:37:19;;;;;;;7.90;2.60;;;6.40;66.20;;;;;;4940106;28;20484;-81